sensor_id;sensor_type;location;lat;lon;timestamp;pressure;altitude;pressure_sealevel;temperature;humidity
58785;BME280;44557;51.862;19.378;2022-12-20T00:00:45;99969.70;;;-0.04;93.17
58785;BME280;44557;51.862;19.378;2022-12-20T00:01:50;99966.13;;;-0.03;92.95
58785;BME280;44557;51.862;19.378;2022-12-20T00:02:52;99969.88;;;-0.01;93.04
58785;BME280;44557;51.862;19.378;2022-12-20T00:03:55;99970.41;;;-0.04;93.37
58785;BME280;44557;51.862;19.378;2022-12-20T00:04:57;99976.38;;;-0.02;93.23
58785;BME280;44557;51.862;19.378;2022-12-20T00:05:58;99971.00;;;-0.04;93.52
58785;BME280;44557;51.862;19.378;2022-12-20T00:07:00;99974.39;;;0.01;93.18
58785;BME280;44557;51.862;19.378;2022-12-20T00:08:01;99975.19;;;-0.00;93.49
58785;BME280;44557;51.862;19.378;2022-12-20T00:09:05;99973.17;;;-0.03;93.51
58785;BME280;44557;51.862;19.378;2022-12-20T00:10:07;99976.54;;;-0.02;93.58
58785;BME280;44557;51.862;19.378;2022-12-20T00:11:09;99972.65;;;-0.02;93.62
58785;BME280;44557;51.862;19.378;2022-12-20T00:12:11;99974.27;;;-0.00;93.53
58785;BME280;44557;51.862;19.378;2022-12-20T00:13:12;99972.79;;;-0.03;93.71
58785;BME280;44557;51.862;19.378;2022-12-20T00:14:14;99971.11;;;-0.04;93.89
58785;BME280;44557;51.862;19.378;2022-12-20T00:15:16;99972.38;;;-0.01;93.72
58785;BME280;44557;51.862;19.378;2022-12-20T00:16:21;99970.58;;;-0.03;93.92
58785;BME280;44557;51.862;19.378;2022-12-20T00:17:22;99961.55;;;-0.01;94.22
58785;BME280;44557;51.862;19.378;2022-12-20T00:18:24;99960.36;;;0.01;94.23
58785;BME280;44557;51.862;19.378;2022-12-20T00:19:26;99960.89;;;-0.03;94.27
58785;BME280;44557;51.862;19.378;2022-12-20T00:20:27;99960.13;;;-0.02;94.67
58785;BME280;44557;51.862;19.378;2022-12-20T00:21:30;99964.42;;;0.03;94.70
58785;BME280;44557;51.862;19.378;2022-12-20T00:22:32;99963.96;;;-0.02;94.97
58785;BME280;44557;51.862;19.378;2022-12-20T00:23:34;99966.63;;;-0.04;95.07
58785;BME280;44557;51.862;19.378;2022-12-20T00:24:36;99962.67;;;-0.01;95.38
58785;BME280;44557;51.862;19.378;2022-12-20T00:25:38;99953.86;;;0.02;95.47
58785;BME280;44557;51.862;19.378;2022-12-20T00:26:39;99957.93;;;0.05;95.17
58785;BME280;44557;51.862;19.378;2022-12-20T00:27:41;99955.30;;;0.08;95.02
58785;BME280;44557;51.862;19.378;2022-12-20T00:28:43;99957.19;;;0.08;95.01
58785;BME280;44557;51.862;19.378;2022-12-20T00:29:45;99953.77;;;0.08;95.23
58785;BME280;44557;51.862;19.378;2022-12-20T00:30:52;99959.85;;;0.06;95.08
58785;BME280;44557;51.862;19.378;2022-12-20T00:31:54;99958.44;;;0.06;95.17
58785;BME280;44557;51.862;19.378;2022-12-20T00:32:56;99956.02;;;0.02;95.19
58785;BME280;44557;51.862;19.378;2022-12-20T00:33:58;99953.27;;;0.01;95.28
58785;BME280;44557;51.862;19.378;2022-12-20T00:35:00;99955.23;;;0.06;95.37
58785;BME280;44557;51.862;19.378;2022-12-20T00:36:03;99951.59;;;0.06;95.28
58785;BME280;44557;51.862;19.378;2022-12-20T00:37:04;99951.28;;;0.06;95.25
58785;BME280;44557;51.862;19.378;2022-12-20T00:38:06;99953.92;;;0.05;95.31
58785;BME280;44557;51.862;19.378;2022-12-20T00:39:08;99952.54;;;0.10;95.34
58785;BME280;44557;51.862;19.378;2022-12-20T00:40:10;99951.58;;;0.11;95.53
58785;BME280;44557;51.862;19.378;2022-12-20T00:41:14;99950.95;;;0.14;95.39
58785;BME280;44557;51.862;19.378;2022-12-20T00:42:17;99946.84;;;0.16;95.38
58785;BME280;44557;51.862;19.378;2022-12-20T00:43:18;99953.77;;;0.17;95.59
58785;BME280;44557;51.862;19.378;2022-12-20T00:44:20;99952.80;;;0.18;95.49
58785;BME280;44557;51.862;19.378;2022-12-20T00:45:21;99952.63;;;0.16;95.49
58785;BME280;44557;51.862;19.378;2022-12-20T00:46:23;99950.79;;;0.18;95.28
58785;BME280;44557;51.862;19.378;2022-12-20T00:47:25;99945.70;;;0.18;95.52
58785;BME280;44557;51.862;19.378;2022-12-20T00:48:29;99944.03;;;0.19;95.39
58785;BME280;44557;51.862;19.378;2022-12-20T00:49:30;99940.48;;;0.16;95.82
58785;BME280;44557;51.862;19.378;2022-12-20T00:50:32;99940.60;;;0.18;95.60
58785;BME280;44557;51.862;19.378;2022-12-20T00:51:33;99942.71;;;0.14;95.77
58785;BME280;44557;51.862;19.378;2022-12-20T00:52:35;99947.37;;;0.16;95.99
58785;BME280;44557;51.862;19.378;2022-12-20T00:53:37;99945.67;;;0.13;95.80
58785;BME280;44557;51.862;19.378;2022-12-20T00:54:39;99938.05;;;0.16;96.05
58785;BME280;44557;51.862;19.378;2022-12-20T00:55:42;99936.42;;;0.15;95.76
58785;BME280;44557;51.862;19.378;2022-12-20T00:56:44;99932.23;;;0.21;95.91
58785;BME280;44557;51.862;19.378;2022-12-20T00:57:45;99934.07;;;0.21;95.88
58785;BME280;44557;51.862;19.378;2022-12-20T00:58:47;99928.71;;;0.23;95.61
58785;BME280;44557;51.862;19.378;2022-12-20T00:59:49;99927.52;;;0.25;95.73
58785;BME280;44557;51.862;19.378;2022-12-20T01:00:51;99924.03;;;0.19;95.89
58785;BME280;44557;51.862;19.378;2022-12-20T01:01:53;99928.39;;;0.22;95.84
58785;BME280;44557;51.862;19.378;2022-12-20T01:02:54;99924.11;;;0.21;95.94
58785;BME280;44557;51.862;19.378;2022-12-20T01:03:56;99926.59;;;0.21;96.14
58785;BME280;44557;51.862;19.378;2022-12-20T01:04:58;99928.30;;;0.26;96.04
58785;BME280;44557;51.862;19.378;2022-12-20T01:06:01;99929.92;;;0.29;96.07
58785;BME280;44557;51.862;19.378;2022-12-20T01:07:02;99926.48;;;0.22;96.19
58785;BME280;44557;51.862;19.378;2022-12-20T01:08:05;99918.04;;;0.23;96.46
58785;BME280;44557;51.862;19.378;2022-12-20T01:09:06;99915.39;;;0.25;96.46
58785;BME280;44557;51.862;19.378;2022-12-20T01:10:09;99919.13;;;0.25;96.50
58785;BME280;44557;51.862;19.378;2022-12-20T01:11:17;99914.48;;;0.28;96.14
58785;BME280;44557;51.862;19.378;2022-12-20T01:12:19;99909.02;;;0.29;96.05
58785;BME280;44557;51.862;19.378;2022-12-20T01:13:20;99906.73;;;0.29;96.29
58785;BME280;44557;51.862;19.378;2022-12-20T01:14:22;99905.55;;;0.31;95.88
58785;BME280;44557;51.862;19.378;2022-12-20T01:15:23;99906.10;;;0.33;95.73
58785;BME280;44557;51.862;19.378;2022-12-20T01:16:28;99895.36;;;0.29;95.70
58785;BME280;44557;51.862;19.378;2022-12-20T01:17:30;99900.12;;;0.28;95.78
58785;BME280;44557;51.862;19.378;2022-12-20T01:18:32;99894.33;;;0.27;95.75
58785;BME280;44557;51.862;19.378;2022-12-20T01:19:33;99884.70;;;0.31;95.77
58785;BME280;44557;51.862;19.378;2022-12-20T01:20:35;99888.33;;;0.34;95.69
58785;BME280;44557;51.862;19.378;2022-12-20T01:21:37;99883.33;;;0.29;95.65
58785;BME280;44557;51.862;19.378;2022-12-20T01:22:44;99882.30;;;0.28;96.06
58785;BME280;44557;51.862;19.378;2022-12-20T01:23:46;99890.85;;;0.27;96.03
58785;BME280;44557;51.862;19.378;2022-12-20T01:24:48;99893.02;;;0.29;95.75
58785;BME280;44557;51.862;19.378;2022-12-20T01:25:50;99896.69;;;0.24;96.05
58785;BME280;44557;51.862;19.378;2022-12-20T01:26:51;99896.30;;;0.22;96.31
58785;BME280;44557;51.862;19.378;2022-12-20T01:27:53;99899.94;;;0.23;96.60
58785;BME280;44557;51.862;19.378;2022-12-20T01:28:57;99897.83;;;0.35;96.33
58785;BME280;44557;51.862;19.378;2022-12-20T01:29:59;99894.05;;;0.29;96.47
58785;BME280;44557;51.862;19.378;2022-12-20T01:31:01;99892.56;;;0.34;96.26
58785;BME280;44557;51.862;19.378;2022-12-20T01:32:02;99893.95;;;0.32;96.43
58785;BME280;44557;51.862;19.378;2022-12-20T01:33:04;99890.23;;;0.32;96.27
58785;BME280;44557;51.862;19.378;2022-12-20T01:34:05;99888.88;;;0.35;96.16
58785;BME280;44557;51.862;19.378;2022-12-20T01:35:07;99889.52;;;0.33;96.18
58785;BME280;44557;51.862;19.378;2022-12-20T01:36:11;99883.98;;;0.34;96.17
58785;BME280;44557;51.862;19.378;2022-12-20T01:37:25;99883.98;;;0.32;96.19
58785;BME280;44557;51.862;19.378;2022-12-20T01:38:27;99875.42;;;0.33;96.15
58785;BME280;44557;51.862;19.378;2022-12-20T01:39:29;99872.45;;;0.35;95.76
58785;BME280;44557;51.862;19.378;2022-12-20T01:40:31;99875.60;;;0.40;95.70
58785;BME280;44557;51.862;19.378;2022-12-20T01:41:33;99867.09;;;0.38;95.68
58785;BME280;44557;51.862;19.378;2022-12-20T01:42:35;99866.61;;;0.41;95.26
58785;BME280;44557;51.862;19.378;2022-12-20T01:44:04;99858.16;;;0.40;95.24
58785;BME280;44557;51.862;19.378;2022-12-20T01:45:08;99857.46;;;0.40;94.91
58785;BME280;44557;51.862;19.378;2022-12-20T01:46:14;99851.60;;;0.36;94.85
58785;BME280;44557;51.862;19.378;2022-12-20T01:47:16;99855.29;;;0.37;95.05
58785;BME280;44557;51.862;19.378;2022-12-20T01:48:21;99852.94;;;0.34;94.98
58785;BME280;44557;51.862;19.378;2022-12-20T01:49:30;99861.08;;;0.35;94.70
58785;BME280;44557;51.862;19.378;2022-12-20T01:50:33;99863.91;;;0.41;94.38
58785;BME280;44557;51.862;19.378;2022-12-20T01:51:38;99858.48;;;0.41;94.40
58785;BME280;44557;51.862;19.378;2022-12-20T01:52:43;99858.55;;;0.43;94.04
58785;BME280;44557;51.862;19.378;2022-12-20T01:53:50;99858.44;;;0.40;94.02
58785;BME280;44557;51.862;19.378;2022-12-20T01:54:59;99856.05;;;0.41;93.86
58785;BME280;44557;51.862;19.378;2022-12-20T01:56:04;99852.31;;;0.41;93.96
58785;BME280;44557;51.862;19.378;2022-12-20T01:57:12;99849.55;;;0.45;93.86
58785;BME280;44557;51.862;19.378;2022-12-20T01:58:17;99851.44;;;0.39;93.67
58785;BME280;44557;51.862;19.378;2022-12-20T01:59:20;99848.19;;;0.42;93.59
58785;BME280;44557;51.862;19.378;2022-12-20T02:00:22;99845.96;;;0.42;93.85
58785;BME280;44557;51.862;19.378;2022-12-20T02:01:24;99849.98;;;0.44;93.99
58785;BME280;44557;51.862;19.378;2022-12-20T02:02:26;99851.77;;;0.42;94.16
58785;BME280;44557;51.862;19.378;2022-12-20T02:03:29;99852.52;;;0.38;93.85
58785;BME280;44557;51.862;19.378;2022-12-20T02:04:31;99865.14;;;0.37;93.75
58785;BME280;44557;51.862;19.378;2022-12-20T02:05:36;99860.55;;;0.38;94.01
58785;BME280;44557;51.862;19.378;2022-12-20T02:06:38;99860.06;;;0.39;94.02
58785;BME280;44557;51.862;19.378;2022-12-20T02:07:40;99856.27;;;0.46;93.74
58785;BME280;44557;51.862;19.378;2022-12-20T02:08:45;99854.10;;;0.43;93.85
58785;BME280;44557;51.862;19.378;2022-12-20T02:09:48;99852.55;;;0.50;93.76
58785;BME280;44557;51.862;19.378;2022-12-20T02:11:13;99855.47;;;0.50;93.68
58785;BME280;44557;51.862;19.378;2022-12-20T02:12:20;99851.19;;;0.52;93.52
58785;BME280;44557;51.862;19.378;2022-12-20T02:13:46;99846.47;;;0.49;93.58
58785;BME280;44557;51.862;19.378;2022-12-20T02:16:01;99840.89;;;0.46;93.70
58785;BME280;44557;51.862;19.378;2022-12-20T02:19:08;99840.23;;;0.49;93.75
58785;BME280;44557;51.862;19.378;2022-12-20T02:21:34;99859.27;;;0.53;93.17
58785;BME280;44557;51.862;19.378;2022-12-20T02:24:47;99851.73;;;0.55;92.98
58785;BME280;44557;51.862;19.378;2022-12-20T02:27:00;99838.79;;;0.58;92.18
58785;BME280;44557;51.862;19.378;2022-12-20T02:30:18;99836.95;;;0.62;91.96
58785;BME280;44557;51.862;19.378;2022-12-20T02:31:26;99838.34;;;0.60;91.70
58785;BME280;44557;51.862;19.378;2022-12-20T02:32:36;99837.92;;;0.61;91.87
58785;BME280;44557;51.862;19.378;2022-12-20T02:33:46;99837.11;;;0.61;91.76
58785;BME280;44557;51.862;19.378;2022-12-20T02:34:48;99842.10;;;0.59;91.92
58785;BME280;44557;51.862;19.378;2022-12-20T02:35:50;99843.83;;;0.60;91.69
58785;BME280;44557;51.862;19.378;2022-12-20T02:36:52;99848.65;;;0.60;91.69
58785;BME280;44557;51.862;19.378;2022-12-20T02:37:56;99855.81;;;0.64;91.85
58785;BME280;44557;51.862;19.378;2022-12-20T02:38:58;99861.27;;;0.67;91.50
58785;BME280;44557;51.862;19.378;2022-12-20T02:39:59;99863.02;;;0.69;91.37
58785;BME280;44557;51.862;19.378;2022-12-20T02:41:10;99865.41;;;0.66;91.48
58785;BME280;44557;51.862;19.378;2022-12-20T02:42:14;99862.38;;;0.67;91.49
58785;BME280;44557;51.862;19.378;2022-12-20T02:43:20;99867.20;;;0.67;91.45
58785;BME280;44557;51.862;19.378;2022-12-20T02:44:44;99868.23;;;0.66;91.72
58785;BME280;44557;51.862;19.378;2022-12-20T02:46:06;99868.82;;;0.65;91.75
58785;BME280;44557;51.862;19.378;2022-12-20T02:47:13;99865.67;;;0.67;91.53
58785;BME280;44557;51.862;19.378;2022-12-20T02:48:17;99864.81;;;0.63;92.09
58785;BME280;44557;51.862;19.378;2022-12-20T02:49:20;99855.48;;;0.67;92.07
58785;BME280;44557;51.862;19.378;2022-12-20T02:50:31;99851.15;;;0.72;91.85
58785;BME280;44557;51.862;19.378;2022-12-20T02:51:36;99847.30;;;0.72;91.88
58785;BME280;44557;51.862;19.378;2022-12-20T02:52:38;99848.33;;;0.72;91.75
58785;BME280;44557;51.862;19.378;2022-12-20T02:53:41;99840.90;;;0.71;91.85
58785;BME280;44557;51.862;19.378;2022-12-20T02:54:43;99836.67;;;0.73;91.65
58785;BME280;44557;51.862;19.378;2022-12-20T02:55:53;99832.88;;;0.76;91.70
58785;BME280;44557;51.862;19.378;2022-12-20T02:57:05;99826.27;;;0.81;91.21
58785;BME280;44557;51.862;19.378;2022-12-20T02:59:00;99817.92;;;0.73;91.61
58785;BME280;44557;51.862;19.378;2022-12-20T02:59:42;99817.75;;;0.68;92.13
58785;BME280;44557;51.862;19.378;2022-12-20T03:00:47;99822.90;;;0.69;91.68
58785;BME280;44557;51.862;19.378;2022-12-20T03:01:52;99817.48;;;0.71;92.04
58785;BME280;44557;51.862;19.378;2022-12-20T03:02:54;99809.79;;;0.69;91.91
58785;BME280;44557;51.862;19.378;2022-12-20T03:04:16;99813.41;;;0.73;92.18
58785;BME280;44557;51.862;19.378;2022-12-20T03:05:20;99814.06;;;0.74;92.20
58785;BME280;44557;51.862;19.378;2022-12-20T03:06:23;99819.60;;;0.73;92.34
58785;BME280;44557;51.862;19.378;2022-12-20T03:07:28;99815.16;;;0.73;92.09
58785;BME280;44557;51.862;19.378;2022-12-20T03:08:30;99813.52;;;0.76;92.41
58785;BME280;44557;51.862;19.378;2022-12-20T03:09:35;99812.29;;;0.69;92.23
58785;BME280;44557;51.862;19.378;2022-12-20T03:10:38;99814.17;;;0.75;92.56
58785;BME280;44557;51.862;19.378;2022-12-20T03:11:39;99805.77;;;0.80;92.61
58785;BME280;44557;51.862;19.378;2022-12-20T03:12:41;99806.48;;;0.81;92.19
58785;BME280;44557;51.862;19.378;2022-12-20T03:13:42;99803.98;;;0.81;92.02
58785;BME280;44557;51.862;19.378;2022-12-20T03:14:44;99806.09;;;0.80;92.05
58785;BME280;44557;51.862;19.378;2022-12-20T03:15:45;99799.91;;;0.79;91.83
58785;BME280;44557;51.862;19.378;2022-12-20T03:16:47;99796.00;;;0.81;92.22
58785;BME280;44557;51.862;19.378;2022-12-20T03:17:49;99785.00;;;0.76;92.36
58785;BME280;44557;51.862;19.378;2022-12-20T03:18:50;99779.09;;;0.75;92.60
58785;BME280;44557;51.862;19.378;2022-12-20T03:19:52;99778.44;;;0.77;92.58
58785;BME280;44557;51.862;19.378;2022-12-20T03:20:53;99782.88;;;0.81;92.41
58785;BME280;44557;51.862;19.378;2022-12-20T03:21:55;99788.25;;;0.80;92.31
58785;BME280;44557;51.862;19.378;2022-12-20T03:22:57;99786.19;;;0.82;92.20
58785;BME280;44557;51.862;19.378;2022-12-20T03:23:58;99790.42;;;0.84;92.11
58785;BME280;44557;51.862;19.378;2022-12-20T03:25:00;99790.15;;;0.90;92.11
58785;BME280;44557;51.862;19.378;2022-12-20T03:26:01;99792.16;;;0.92;92.03
58785;BME280;44557;51.862;19.378;2022-12-20T03:27:03;99802.08;;;0.91;92.01
58785;BME280;44557;51.862;19.378;2022-12-20T03:28:05;99796.66;;;0.85;92.25
58785;BME280;44557;51.862;19.378;2022-12-20T03:29:06;99800.39;;;0.95;91.99
58785;BME280;44557;51.862;19.378;2022-12-20T03:30:08;99798.71;;;0.94;92.00
58785;BME280;44557;51.862;19.378;2022-12-20T03:31:10;99804.08;;;0.92;91.63
58785;BME280;44557;51.862;19.378;2022-12-20T03:32:12;99802.77;;;0.92;91.94
58785;BME280;44557;51.862;19.378;2022-12-20T03:33:13;99798.55;;;0.90;92.09
58785;BME280;44557;51.862;19.378;2022-12-20T03:34:15;99796.06;;;0.86;92.15
58785;BME280;44557;51.862;19.378;2022-12-20T03:35:17;99796.21;;;0.91;92.13
58785;BME280;44557;51.862;19.378;2022-12-20T03:36:18;99794.42;;;0.91;92.02
58785;BME280;44557;51.862;19.378;2022-12-20T03:37:23;99791.29;;;0.92;92.05
58785;BME280;44557;51.862;19.378;2022-12-20T03:38:25;99793.23;;;0.92;91.73
58785;BME280;44557;51.862;19.378;2022-12-20T03:39:26;99789.59;;;0.92;92.06
58785;BME280;44557;51.862;19.378;2022-12-20T03:40:28;99791.02;;;0.92;92.24
58785;BME280;44557;51.862;19.378;2022-12-20T03:41:30;99789.70;;;0.93;92.19
58785;BME280;44557;51.862;19.378;2022-12-20T03:42:31;99797.85;;;0.90;92.12
58785;BME280;44557;51.862;19.378;2022-12-20T03:43:33;99800.71;;;0.90;91.86
58785;BME280;44557;51.862;19.378;2022-12-20T03:44:34;99799.70;;;0.89;92.50
58785;BME280;44557;51.862;19.378;2022-12-20T03:45:36;99795.46;;;0.89;92.21
58785;BME280;44557;51.862;19.378;2022-12-20T03:46:38;99797.74;;;0.91;92.03
58785;BME280;44557;51.862;19.378;2022-12-20T03:47:39;99795.98;;;0.93;92.18
58785;BME280;44557;51.862;19.378;2022-12-20T03:48:41;99798.00;;;0.94;92.39
58785;BME280;44557;51.862;19.378;2022-12-20T03:49:42;99793.94;;;0.94;92.02
58785;BME280;44557;51.862;19.378;2022-12-20T03:50:44;99798.17;;;0.93;92.04
58785;BME280;44557;51.862;19.378;2022-12-20T03:51:46;99793.23;;;0.93;91.90
58785;BME280;44557;51.862;19.378;2022-12-20T03:52:47;99793.88;;;0.99;91.98
58785;BME280;44557;51.862;19.378;2022-12-20T03:53:49;99792.85;;;0.98;91.62
58785;BME280;44557;51.862;19.378;2022-12-20T03:54:50;99791.93;;;0.98;91.72
58785;BME280;44557;51.862;19.378;2022-12-20T03:55:52;99791.00;;;0.97;91.65
58785;BME280;44557;51.862;19.378;2022-12-20T03:56:54;99794.95;;;1.01;91.80
58785;BME280;44557;51.862;19.378;2022-12-20T03:57:55;99793.27;;;0.99;91.58
58785;BME280;44557;51.862;19.378;2022-12-20T03:58:57;99778.41;;;1.01;91.20
58785;BME280;44557;51.862;19.378;2022-12-20T03:59:58;99772.61;;;0.98;91.40
58785;BME280;44557;51.862;19.378;2022-12-20T04:01:00;99766.92;;;1.00;91.00
58785;BME280;44557;51.862;19.378;2022-12-20T04:02:02;99776.15;;;0.99;91.17
58785;BME280;44557;51.862;19.378;2022-12-20T04:03:04;99785.05;;;0.95;91.26
58785;BME280;44557;51.862;19.378;2022-12-20T04:04:06;99789.80;;;1.00;91.13
58785;BME280;44557;51.862;19.378;2022-12-20T04:05:07;99793.71;;;1.02;91.19
58785;BME280;44557;51.862;19.378;2022-12-20T04:06:09;99789.58;;;1.05;91.11
58785;BME280;44557;51.862;19.378;2022-12-20T04:07:11;99791.10;;;1.02;91.33
58785;BME280;44557;51.862;19.378;2022-12-20T04:08:12;99792.14;;;1.02;91.21
58785;BME280;44557;51.862;19.378;2022-12-20T04:09:14;99796.09;;;1.04;91.13
58785;BME280;44557;51.862;19.378;2022-12-20T04:10:15;99796.32;;;1.01;90.94
58785;BME280;44557;51.862;19.378;2022-12-20T04:11:17;99792.08;;;1.03;90.75
58785;BME280;44557;51.862;19.378;2022-12-20T04:12:19;99793.38;;;1.04;90.45
58785;BME280;44557;51.862;19.378;2022-12-20T04:13:20;99791.10;;;1.04;90.30
58785;BME280;44557;51.862;19.378;2022-12-20T04:14:22;99788.62;;;1.03;90.62
58785;BME280;44557;51.862;19.378;2022-12-20T04:15:24;99785.14;;;1.05;90.52
58785;BME280;44557;51.862;19.378;2022-12-20T04:16:27;99791.05;;;1.02;90.67
58785;BME280;44557;51.862;19.378;2022-12-20T04:17:29;99792.14;;;1.02;90.67
58785;BME280;44557;51.862;19.378;2022-12-20T04:18:31;99781.50;;;1.07;90.38
58785;BME280;44557;51.862;19.378;2022-12-20T04:19:32;99774.08;;;1.07;89.89
58785;BME280;44557;51.862;19.378;2022-12-20T04:20:34;99779.81;;;1.10;90.05
58785;BME280;44557;51.862;19.378;2022-12-20T04:21:35;99785.08;;;1.10;89.87
58785;BME280;44557;51.862;19.378;2022-12-20T04:22:37;99794.70;;;1.09;89.73
58785;BME280;44557;51.862;19.378;2022-12-20T04:23:40;99798.04;;;1.08;89.81
58785;BME280;44557;51.862;19.378;2022-12-20T04:24:41;99793.98;;;1.11;89.76
58785;BME280;44557;51.862;19.378;2022-12-20T04:25:43;99798.14;;;1.10;89.51
58785;BME280;44557;51.862;19.378;2022-12-20T04:26:44;99795.11;;;1.11;89.24
58785;BME280;44557;51.862;19.378;2022-12-20T04:27:46;99803.91;;;1.08;89.57
58785;BME280;44557;51.862;19.378;2022-12-20T04:28:48;99797.89;;;1.09;89.63
58785;BME280;44557;51.862;19.378;2022-12-20T04:29:49;99796.25;;;1.06;89.59
58785;BME280;44557;51.862;19.378;2022-12-20T04:30:51;99796.20;;;1.03;89.60
58785;BME280;44557;51.862;19.378;2022-12-20T04:31:52;99796.16;;;1.05;89.57
58785;BME280;44557;51.862;19.378;2022-12-20T04:32:54;99799.46;;;1.05;89.52
58785;BME280;44557;51.862;19.378;2022-12-20T04:33:55;99799.89;;;1.07;89.36
58785;BME280;44557;51.862;19.378;2022-12-20T04:34:57;99802.33;;;1.07;89.34
58785;BME280;44557;51.862;19.378;2022-12-20T04:35:59;99799.50;;;1.06;89.30
58785;BME280;44557;51.862;19.378;2022-12-20T04:37:00;99797.83;;;1.06;89.21
58785;BME280;44557;51.862;19.378;2022-12-20T04:38:03;99794.85;;;1.04;89.33
58785;BME280;44557;51.862;19.378;2022-12-20T04:39:04;99792.73;;;1.10;89.19
58785;BME280;44557;51.862;19.378;2022-12-20T04:40:06;99797.83;;;1.07;89.05
58785;BME280;44557;51.862;19.378;2022-12-20T04:41:08;99790.83;;;1.10;88.57
58785;BME280;44557;51.862;19.378;2022-12-20T04:42:10;99789.80;;;1.08;88.63
58785;BME280;44557;51.862;19.378;2022-12-20T04:43:11;99799.12;;;1.11;88.24
58785;BME280;44557;51.862;19.378;2022-12-20T04:44:13;99798.48;;;1.11;87.97
58785;BME280;44557;51.862;19.378;2022-12-20T04:45:14;99797.61;;;1.09;88.17
58785;BME280;44557;51.862;19.378;2022-12-20T04:46:17;99798.09;;;1.09;88.19
58785;BME280;44557;51.862;19.378;2022-12-20T04:47:19;99795.98;;;1.08;88.22
58785;BME280;44557;51.862;19.378;2022-12-20T04:48:22;99797.50;;;1.07;88.32
58785;BME280;44557;51.862;19.378;2022-12-20T04:49:25;99796.11;;;1.03;88.66
58785;BME280;44557;51.862;19.378;2022-12-20T04:50:27;99798.48;;;1.01;88.51
58785;BME280;44557;51.862;19.378;2022-12-20T04:51:28;99803.52;;;1.01;88.30
58785;BME280;44557;51.862;19.378;2022-12-20T04:52:30;99804.01;;;1.03;88.16
58785;BME280;44557;51.862;19.378;2022-12-20T04:53:50;99808.19;;;1.01;87.95
58785;BME280;44557;51.862;19.378;2022-12-20T04:54:51;99808.79;;;1.01;87.90
58785;BME280;44557;51.862;19.378;2022-12-20T04:55:53;99812.00;;;0.99;87.95
58785;BME280;44557;51.862;19.378;2022-12-20T04:56:55;99807.73;;;1.01;87.94
58785;BME280;44557;51.862;19.378;2022-12-20T04:57:56;99808.30;;;1.04;87.94
58785;BME280;44557;51.862;19.378;2022-12-20T04:58:58;99808.47;;;1.06;88.03
58785;BME280;44557;51.862;19.378;2022-12-20T05:00:00;99813.35;;;1.00;87.94
58785;BME280;44557;51.862;19.378;2022-12-20T05:01:01;99815.95;;;1.00;87.33
58785;BME280;44557;51.862;19.378;2022-12-20T05:02:03;99817.31;;;1.02;87.47
58785;BME280;44557;51.862;19.378;2022-12-20T05:03:04;99819.69;;;1.01;87.66
58785;BME280;44557;51.862;19.378;2022-12-20T05:04:06;99819.59;;;0.99;87.68
58785;BME280;44557;51.862;19.378;2022-12-20T05:05:08;99813.84;;;1.01;87.64
58785;BME280;44557;51.862;19.378;2022-12-20T05:06:09;99812.22;;;1.01;87.49
58785;BME280;44557;51.862;19.378;2022-12-20T05:07:11;99807.32;;;1.03;87.57
58785;BME280;44557;51.862;19.378;2022-12-20T05:08:13;99809.55;;;1.03;87.54
58785;BME280;44557;51.862;19.378;2022-12-20T05:09:15;99808.77;;;1.09;87.52
58785;BME280;44557;51.862;19.378;2022-12-20T05:10:16;99808.08;;;1.05;87.38
58785;BME280;44557;51.862;19.378;2022-12-20T05:11:18;99808.85;;;1.05;87.37
58785;BME280;44557;51.862;19.378;2022-12-20T05:12:20;99808.23;;;1.10;86.89
58785;BME280;44557;51.862;19.378;2022-12-20T05:13:21;99808.61;;;1.08;86.48
58785;BME280;44557;51.862;19.378;2022-12-20T05:14:23;99809.77;;;0.89;87.37
58785;BME280;44557;51.862;19.378;2022-12-20T05:15:26;99805.44;;;0.86;87.70
58785;BME280;44557;51.862;19.378;2022-12-20T05:16:27;99806.74;;;0.83;87.90
58785;BME280;44557;51.862;19.378;2022-12-20T05:17:30;99805.34;;;0.77;87.71
58785;BME280;44557;51.862;19.378;2022-12-20T05:18:31;99813.48;;;0.76;87.80
58785;BME280;44557;51.862;19.378;2022-12-20T05:19:33;99812.98;;;0.66;88.20
58785;BME280;44557;51.862;19.378;2022-12-20T05:20:34;99811.80;;;0.58;88.46
58785;BME280;44557;51.862;19.378;2022-12-20T05:21:36;99810.20;;;0.41;87.85
58785;BME280;44557;51.862;19.378;2022-12-20T05:22:56;99810.14;;;0.34;88.19
58785;BME280;44557;51.862;19.378;2022-12-20T05:24:16;99816.16;;;0.17;88.24
58785;BME280;44557;51.862;19.378;2022-12-20T05:25:47;99813.40;;;0.19;88.80
58785;BME280;44557;51.862;19.378;2022-12-20T05:27:10;99816.91;;;0.39;88.92
58785;BME280;44557;51.862;19.378;2022-12-20T05:28:12;99816.98;;;0.43;88.73
58785;BME280;44557;51.862;19.378;2022-12-20T05:29:13;99812.33;;;0.54;89.16
58785;BME280;44557;51.862;19.378;2022-12-20T05:30:17;99809.61;;;0.56;89.22
58785;BME280;44557;51.862;19.378;2022-12-20T05:31:18;99803.61;;;0.62;89.23
58785;BME280;44557;51.862;19.378;2022-12-20T05:32:20;99800.62;;;0.63;88.73
58785;BME280;44557;51.862;19.378;2022-12-20T05:33:22;99797.70;;;0.59;88.62
58785;BME280;44557;51.862;19.378;2022-12-20T05:34:23;99796.23;;;0.51;87.69
58785;BME280;44557;51.862;19.378;2022-12-20T05:35:25;99796.33;;;0.37;87.62
58785;BME280;44557;51.862;19.378;2022-12-20T05:36:27;99797.55;;;0.36;88.14
58785;BME280;44557;51.862;19.378;2022-12-20T05:37:51;99802.02;;;0.39;88.17
58785;BME280;44557;51.862;19.378;2022-12-20T05:38:53;99799.79;;;0.42;88.27
58785;BME280;44557;51.862;19.378;2022-12-20T05:39:54;99800.98;;;0.39;87.86
58785;BME280;44557;51.862;19.378;2022-12-20T05:40:56;99795.63;;;0.48;87.87
58785;BME280;44557;51.862;19.378;2022-12-20T05:41:58;99797.42;;;0.51;87.82
58785;BME280;44557;51.862;19.378;2022-12-20T05:43:00;99793.08;;;0.56;88.05
58785;BME280;44557;51.862;19.378;2022-12-20T05:44:03;99796.78;;;0.60;88.09
58785;BME280;44557;51.862;19.378;2022-12-20T05:45:05;99800.73;;;0.65;88.09
58785;BME280;44557;51.862;19.378;2022-12-20T05:46:07;99798.93;;;0.71;87.12